sensor_id;sensor_type;location;lat;lon;timestamp;pressure;altitude;pressure_sealevel;temperature;humidity
40992;BME280;29633;49.168;9.848;2023-04-09T00:00:24;97512.03;;;12.88;60.31
40992;BME280;29633;49.168;9.848;2023-04-09T00:02:49;97512.97;;;12.87;60.49
40992;BME280;29633;49.168;9.848;2023-04-09T00:05:15;97510.47;;;12.85;60.49
40992;BME280;29633;49.168;9.848;2023-04-09T00:07:41;97508.69;;;12.86;60.46
40992;BME280;29633;49.168;9.848;2023-04-09T00:10:07;97509.63;;;12.84;60.56
40992;BME280;29633;49.168;9.848;2023-04-09T00:12:33;97509.63;;;12.84;60.46
40992;BME280;29633;49.168;9.848;2023-04-09T00:14:58;97508.00;;;12.83;60.45
40992;BME280;29633;49.168;9.848;2023-04-09T00:17:26;97505.41;;;12.83;60.53
40992;BME280;29633;49.168;9.848;2023-04-09T00:19:52;97501.97;;;12.83;60.52
40992;BME280;29633;49.168;9.848;2023-04-09T00:22:17;97506.34;;;12.82;60.52
40992;BME280;29633;49.168;9.848;2023-04-09T00:24:43;97503.72;;;12.82;60.43
40992;BME280;29633;49.168;9.848;2023-04-09T00:27:09;97504.66;;;12.81;60.55
40992;BME280;29633;49.168;9.848;2023-04-09T00:29:35;97509.88;;;12.81;60.56
40992;BME280;29633;49.168;9.848;2023-04-09T00:32:01;97503.97;;;12.79;60.50
40992;BME280;29633;49.168;9.848;2023-04-09T00:34:26;97504.91;;;12.78;60.25
40992;BME280;29633;49.168;9.848;2023-04-09T00:36:52;97504.09;;;12.78;60.80
40992;BME280;29633;49.168;9.848;2023-04-09T00:39:17;97509.28;;;12.78;60.55
40992;BME280;29633;49.168;9.848;2023-04-09T00:41:43;97498.03;;;12.77;60.62
40992;BME280;29633;49.168;9.848;2023-04-09T00:44:09;97504.09;;;12.78;60.62
40992;BME280;29633;49.168;9.848;2023-04-09T00:46:34;97506.81;;;12.76;60.57
40992;BME280;29633;49.168;9.848;2023-04-09T00:49:00;97505.03;;;12.77;60.68
40992;BME280;29633;49.168;9.848;2023-04-09T00:51:26;97499.81;;;12.77;60.50
40992;BME280;29633;49.168;9.848;2023-04-09T00:53:53;97508.44;;;12.77;60.39
40992;BME280;29633;49.168;9.848;2023-04-09T00:56:19;97510.34;;;12.75;60.56
40992;BME280;29633;49.168;9.848;2023-04-09T00:58:46;97507.75;;;12.75;60.57
40992;BME280;29633;49.168;9.848;2023-04-09T01:01:12;97512.97;;;12.75;60.58
40992;BME280;29633;49.168;9.848;2023-04-09T01:03:38;97508.59;;;12.76;60.55
40992;BME280;29633;49.168;9.848;2023-04-09T01:06:10;97507.88;;;12.74;60.71
40992;BME280;29633;49.168;9.848;2023-04-09T01:09:10;97506.22;;;12.73;60.56
40992;BME280;29633;49.168;9.848;2023-04-09T01:12:15;97506.34;;;12.71;60.59
40992;BME280;29633;49.168;9.848;2023-04-09T01:14:55;97515.91;;;12.71;60.80
40992;BME280;29633;49.168;9.848;2023-04-09T01:17:37;97507.28;;;12.70;60.96
40992;BME280;29633;49.168;9.848;2023-04-09T01:20:41;97508.25;;;12.69;60.64
40992;BME280;29633;49.168;9.848;2023-04-09T01:26:40;97503.25;;;12.66;60.69
40992;BME280;29633;49.168;9.848;2023-04-09T01:29:10;97502.56;;;12.64;60.88
40992;BME280;29633;49.168;9.848;2023-04-09T01:31:37;97504.47;;;12.62;60.82
40992;BME280;29633;49.168;9.848;2023-04-09T01:34:05;97497.59;;;12.61;60.79
40992;BME280;29633;49.168;9.848;2023-04-09T01:36:32;97501.13;;;12.60;60.74
40992;BME280;29633;49.168;9.848;2023-04-09T01:38:59;97502.91;;;12.60;60.71
40992;BME280;29633;49.168;9.848;2023-04-09T01:41:25;97492.84;;;12.55;60.89
40992;BME280;29633;49.168;9.848;2023-04-09T01:43:52;97499.00;;;12.54;60.98
40992;BME280;29633;49.168;9.848;2023-04-09T01:46:18;97494.75;;;12.53;60.78
40992;BME280;29633;49.168;9.848;2023-04-09T01:48:45;97493.06;;;12.52;60.97
40992;BME280;29633;49.168;9.848;2023-04-09T01:51:12;97493.06;;;12.52;60.65
40992;BME280;29633;49.168;9.848;2023-04-09T01:53:42;97490.03;;;12.47;61.09
40992;BME280;29633;49.168;9.848;2023-04-09T01:56:08;97490.03;;;12.47;60.83
40992;BME280;29633;49.168;9.848;2023-04-09T01:58:36;97496.16;;;12.46;60.79
40992;BME280;29633;49.168;9.848;2023-04-09T02:01:05;97495.56;;;12.43;61.13
40992;BME280;29633;49.168;9.848;2023-04-09T02:03:43;97491.19;;;12.43;61.03
40992;BME280;29633;49.168;9.848;2023-04-09T02:06:13;97494.72;;;12.42;60.76
40992;BME280;29633;49.168;9.848;2023-04-09T02:08:43;97494.03;;;12.40;60.93
40992;BME280;29633;49.168;9.848;2023-04-09T02:11:09;97491.44;;;12.40;60.98
40992;BME280;29633;49.168;9.848;2023-04-09T02:13:36;97496.88;;;12.37;61.23
40992;BME280;29633;49.168;9.848;2023-04-09T02:16:01;97494.47;;;12.34;61.19
40992;BME280;29633;49.168;9.848;2023-04-09T02:18:28;97496.13;;;12.35;60.90
40992;BME280;29633;49.168;9.848;2023-04-09T02:20:56;97493.53;;;12.35;61.02
40992;BME280;29633;49.168;9.848;2023-04-09T02:23:23;97490.25;;;12.33;61.00
40992;BME280;29633;49.168;9.848;2023-04-09T02:25:49;97490.25;;;12.33;60.95
40992;BME280;29633;49.168;9.848;2023-04-09T02:28:15;97494.47;;;12.34;61.18
40992;BME280;29633;49.168;9.848;2023-04-09T02:30:41;97495.31;;;12.34;61.03
40992;BME280;29633;49.168;9.848;2023-04-09T02:33:07;97490.09;;;12.34;60.94
40992;BME280;29633;49.168;9.848;2023-04-09T02:35:32;97495.22;;;12.36;61.34
40992;BME280;29633;49.168;9.848;2023-04-09T02:37:58;97492.59;;;12.36;60.91
40992;BME280;29633;49.168;9.848;2023-04-09T02:40:24;97492.00;;;12.32;60.96
40992;BME280;29633;49.168;9.848;2023-04-09T02:42:51;97493.78;;;12.32;61.04
40992;BME280;29633;49.168;9.848;2023-04-09T02:45:17;97492.00;;;12.32;60.98
40992;BME280;29633;49.168;9.848;2023-04-09T02:47:42;97494.63;;;12.32;61.10
40992;BME280;29633;49.168;9.848;2023-04-09T02:50:08;97499.91;;;12.31;60.95
40992;BME280;29633;49.168;9.848;2023-04-09T02:52:34;97493.06;;;12.30;61.07
40992;BME280;29633;49.168;9.848;2023-04-09T02:55:00;97492.47;;;12.26;61.22
40992;BME280;29633;49.168;9.848;2023-04-09T02:57:25;97494.34;;;12.24;61.08
40992;BME280;29633;49.168;9.848;2023-04-09T02:59:51;97498.63;;;12.25;61.16
40992;BME280;29633;49.168;9.848;2023-04-09T03:02:16;97490.81;;;12.25;61.09
40992;BME280;29633;49.168;9.848;2023-04-09T03:04:42;97497.88;;;12.23;61.13
40992;BME280;29633;49.168;9.848;2023-04-09T03:07:08;97493.75;;;12.21;61.24
40992;BME280;29633;49.168;9.848;2023-04-09T03:09:33;97487.72;;;12.20;61.11
40992;BME280;29633;49.168;9.848;2023-04-09T03:11:59;97483.38;;;12.21;61.04
40992;BME280;29633;49.168;9.848;2023-04-09T03:14:26;97481.59;;;12.21;61.24
40992;BME280;29633;49.168;9.848;2023-04-09T03:16:52;97480.75;;;12.21;61.20
40992;BME280;29633;49.168;9.848;2023-04-09T03:19:18;97489.41;;;12.21;61.11
40992;BME280;29633;49.168;9.848;2023-04-09T03:21:43;97484.28;;;12.20;61.16
40992;BME280;29633;49.168;9.848;2023-04-09T03:24:11;97487.63;;;12.22;61.27
40992;BME280;29633;49.168;9.848;2023-04-09T03:26:36;97483.25;;;12.22;61.12
40992;BME280;29633;49.168;9.848;2023-04-09T03:29:03;97482.28;;;12.23;60.95
40992;BME280;29633;49.168;9.848;2023-04-09T03:31:29;97479.00;;;12.21;61.08
40992;BME280;29633;49.168;9.848;2023-04-09T03:33:55;97481.47;;;12.23;61.30
40992;BME280;29633;49.168;9.848;2023-04-09T03:36:21;97481.69;;;12.20;61.17
40992;BME280;29633;49.168;9.848;2023-04-09T03:38:47;97478.28;;;12.19;61.26
40992;BME280;29633;49.168;9.848;2023-04-09T03:41:12;97476.50;;;12.20;61.29
40992;BME280;29633;49.168;9.848;2023-04-09T03:43:38;97480.88;;;12.19;61.26
40992;BME280;29633;49.168;9.848;2023-04-09T03:46:14;97485.25;;;12.19;61.32
40992;BME280;29633;49.168;9.848;2023-04-09T03:48:40;97490.47;;;12.19;61.44
40992;BME280;29633;49.168;9.848;2023-04-09T03:51:13;97487.88;;;12.19;61.39
40992;BME280;29633;49.168;9.848;2023-04-09T03:53:39;97486.06;;;12.19;61.47
40992;BME280;29633;49.168;9.848;2023-04-09T03:56:05;97490.31;;;12.20;61.35
40992;BME280;29633;49.168;9.848;2023-04-09T03:58:31;97491.16;;;12.21;61.45
40992;BME280;29633;49.168;9.848;2023-04-09T04:00:56;97495.66;;;12.19;61.36
40992;BME280;29633;49.168;9.848;2023-04-09T04:03:22;97482.66;;;12.19;61.47
40992;BME280;29633;49.168;9.848;2023-04-09T04:05:48;97488.81;;;12.18;61.47
40992;BME280;29633;49.168;9.848;2023-04-09T04:08:13;97483.59;;;12.18;61.33
40992;BME280;29633;49.168;9.848;2023-04-09T04:10:39;97486.06;;;12.19;61.40
40992;BME280;29633;49.168;9.848;2023-04-09T04:13:08;97483.69;;;12.16;61.44
40992;BME280;29633;49.168;9.848;2023-04-09T04:15:41;97481.94;;;12.17;61.33
40992;BME280;29633;49.168;9.848;2023-04-09T04:18:10;97485.38;;;12.17;61.32
40992;BME280;29633;49.168;9.848;2023-04-09T04:20:36;97487.13;;;12.17;61.35
40992;BME280;29633;49.168;9.848;2023-04-09T04:23:03;97489.72;;;12.17;61.44
40992;BME280;29633;49.168;9.848;2023-04-09T04:25:29;97495.66;;;12.19;61.26
40992;BME280;29633;49.168;9.848;2023-04-09T04:27:55;97488.81;;;12.18;61.40
40992;BME280;29633;49.168;9.848;2023-04-09T04:30:21;97488.19;;;12.14;61.24
40992;BME280;29633;49.168;9.848;2023-04-09T04:32:49;97490.81;;;12.14;61.41
40992;BME280;29633;49.168;9.848;2023-04-09T04:35:15;97488.91;;;12.16;61.48
40992;BME280;29633;49.168;9.848;2023-04-09T04:37:41;97492.09;;;12.20;61.36
40992;BME280;29633;49.168;9.848;2023-04-09T04:40:07;97493.75;;;12.21;61.56
40992;BME280;29633;49.168;9.848;2023-04-09T04:42:33;97498.97;;;12.21;61.38
40992;BME280;29633;49.168;9.848;2023-04-09T04:44:59;97500.50;;;12.23;61.39
40992;BME280;29633;49.168;9.848;2023-04-09T04:47:25;97502.06;;;12.26;61.30
40992;BME280;29633;49.168;9.848;2023-04-09T04:49:50;97511.38;;;12.28;61.50
40992;BME280;29633;49.168;9.848;2023-04-09T04:52:16;97507.94;;;12.28;61.39
40992;BME280;29633;49.168;9.848;2023-04-09T04:54:42;97509.84;;;12.26;61.31
40992;BME280;29633;49.168;9.848;2023-04-09T04:57:08;97505.59;;;12.25;61.19
40992;BME280;29633;49.168;9.848;2023-04-09T04:59:37;97505.69;;;12.23;61.38
40992;BME280;29633;49.168;9.848;2023-04-09T05:02:05;97506.41;;;12.25;61.42
40992;BME280;29633;49.168;9.848;2023-04-09T05:04:30;97513.25;;;12.26;61.29
40992;BME280;29633;49.168;9.848;2023-04-09T05:06:56;97511.50;;;12.27;61.38
40992;BME280;29633;49.168;9.848;2023-04-09T05:09:22;97504.53;;;12.27;61.02
40992;BME280;29633;49.168;9.848;2023-04-09T05:11:47;97515.50;;;12.31;61.25
40992;BME280;29633;49.168;9.848;2023-04-09T05:14:13;97511.25;;;12.30;61.24
40992;BME280;29633;49.168;9.848;2023-04-09T05:16:39;97503.44;;;12.30;61.37
40992;BME280;29633;49.168;9.848;2023-04-09T05:19:05;97508.44;;;12.33;61.55
40992;BME280;29633;49.168;9.848;2023-04-09T05:21:35;97506.53;;;12.35;61.35
40992;BME280;29633;49.168;9.848;2023-04-09T05:24:01;97506.31;;;12.38;61.34
40992;BME280;29633;49.168;9.848;2023-04-09T05:26:26;97513.75;;;12.43;61.30
40992;BME280;29633;49.168;9.848;2023-04-09T05:28:52;97515.28;;;12.45;61.39
40992;BME280;29633;49.168;9.848;2023-04-09T05:31:18;97515.88;;;12.49;61.30
40992;BME280;29633;49.168;9.848;2023-04-09T05:33:43;97513.06;;;12.52;61.23
40992;BME280;29633;49.168;9.848;2023-04-09T05:36:16;97508.34;;;12.57;61.19
40992;BME280;29633;49.168;9.848;2023-04-09T05:38:43;97516.72;;;12.60;61.31
40992;BME280;29633;49.168;9.848;2023-04-09T05:41:09;97512.03;;;12.65;61.22
40992;BME280;29633;49.168;9.848;2023-04-09T05:43:34;97515.22;;;12.69;61.37
40992;BME280;29633;49.168;9.848;2023-04-09T05:46:00;97521.94;;;12.71;61.48
40992;BME280;29633;49.168;9.848;2023-04-09T05:48:26;97515.56;;;12.75;61.36
40992;BME280;29633;49.168;9.848;2023-04-09T05:50:52;97526.81;;;12.76;61.30
40992;BME280;29633;49.168;9.848;2023-04-09T05:53:18;97520.53;;;12.78;61.41
40992;BME280;29633;49.168;9.848;2023-04-09T05:55:44;97520.28;;;12.81;61.31
40992;BME280;29633;49.168;9.848;2023-04-09T05:58:11;97524.31;;;12.86;61.53
40992;BME280;29633;49.168;9.848;2023-04-09T06:00:37;97522.19;;;12.91;61.24
40992;BME280;29633;49.168;9.848;2023-04-09T06:03:03;97527.97;;;12.94;61.32
40992;BME280;29633;49.168;9.848;2023-04-09T06:05:29;97532.94;;;12.97;61.34
40992;BME280;29633;49.168;9.848;2023-04-09T06:07:54;97540.59;;;12.99;61.27
40992;BME280;29633;49.168;9.848;2023-04-09T06:10:20;97531.88;;;13.00;61.29
40992;BME280;29633;49.168;9.848;2023-04-09T06:12:46;97534.47;;;13.00;61.23
40992;BME280;29633;49.168;9.848;2023-04-09T06:15:12;97537.78;;;13.02;61.20
40992;BME280;29633;49.168;9.848;2023-04-09T06:17:37;97539.31;;;13.04;61.13
40992;BME280;29633;49.168;9.848;2023-04-09T06:20:03;97538.25;;;13.07;61.31
40992;BME280;29633;49.168;9.848;2023-04-09T06:22:29;97538.75;;;13.12;61.34
40992;BME280;29633;49.168;9.848;2023-04-09T06:24:54;97541.22;;;13.13;61.20
40992;BME280;29633;49.168;9.848;2023-04-09T06:27:22;97546.22;;;13.16;61.21
40992;BME280;29633;49.168;9.848;2023-04-09T06:29:47;97544.31;;;13.18;61.21
40992;BME280;29633;49.168;9.848;2023-04-09T06:32:13;97541.69;;;13.18;61.29
40992;BME280;29633;49.168;9.848;2023-04-09T06:34:39;97546.81;;;13.20;61.33
40992;BME280;29633;49.168;9.848;2023-04-09T06:37:04;97540.75;;;13.19;61.33
40992;BME280;29633;49.168;9.848;2023-04-09T06:39:30;97549.16;;;13.23;61.19
40992;BME280;29633;49.168;9.848;2023-04-09T06:41:57;97550.78;;;13.24;61.33
40992;BME280;29633;49.168;9.848;2023-04-09T06:44:23;97552.59;;;13.23;61.44
40992;BME280;29633;49.168;9.848;2023-04-09T06:46:49;97557.81;;;13.23;61.23
40992;BME280;29633;49.168;9.848;2023-04-09T06:49:14;97555.31;;;13.22;61.30
40992;BME280;29633;49.168;9.848;2023-04-09T06:51:40;97552.22;;;13.17;61.31
40992;BME280;29633;49.168;9.848;2023-04-09T06:54:06;97550.59;;;13.16;61.45
40992;BME280;29633;49.168;9.848;2023-04-09T06:56:32;97560.03;;;13.17;61.45
40992;BME280;29633;49.168;9.848;2023-04-09T06:58:58;97560.03;;;13.17;61.53
40992;BME280;29633;49.168;9.848;2023-04-09T07:01:24;97558.03;;;13.20;61.44
40992;BME280;29633;49.168;9.848;2023-04-09T07:03:50;97567.84;;;13.28;61.22
40992;BME280;29633;49.168;9.848;2023-04-09T07:06:15;97563.94;;;13.34;61.30
40992;BME280;29633;49.168;9.848;2023-04-09T07:08:41;97562.63;;;13.39;61.18
40992;BME280;29633;49.168;9.848;2023-04-09T07:11:07;97564.63;;;13.47;61.25
40992;BME280;29633;49.168;9.848;2023-04-09T07:13:32;97562.47;;;13.52;61.15
40992;BME280;29633;49.168;9.848;2023-04-09T07:15:58;97560.47;;;13.55;61.20
40992;BME280;29633;49.168;9.848;2023-04-09T07:18:24;97569.56;;;13.61;61.13
40992;BME280;29633;49.168;9.848;2023-04-09T07:20:51;97568.50;;;13.63;61.30
40992;BME280;29633;49.168;9.848;2023-04-09T07:23:17;97565.91;;;13.63;61.35
40992;BME280;29633;49.168;9.848;2023-04-09T07:25:42;97564.09;;;13.64;61.20
40992;BME280;29633;49.168;9.848;2023-04-09T07:28:08;97570.84;;;13.66;61.26
40992;BME280;29633;49.168;9.848;2023-04-09T07:30:34;97569.66;;;13.70;61.19
40992;BME280;29633;49.168;9.848;2023-04-09T07:32:59;97576.41;;;13.73;61.18
40992;BME280;29633;49.168;9.848;2023-04-09T07:35:25;97573.19;;;13.80;61.09
40992;BME280;29633;49.168;9.848;2023-04-09T07:37:51;97572.69;;;13.87;61.07
40992;BME280;29633;49.168;9.848;2023-04-09T07:40:16;97577.38;;;13.93;61.07
40992;BME280;29633;49.168;9.848;2023-04-09T07:42:42;97576.19;;;13.97;60.99
40992;BME280;29633;49.168;9.848;2023-04-09T07:45:08;97579.16;;;14.03;61.10
40992;BME280;29633;49.168;9.848;2023-04-09T07:47:34;97577.81;;;14.09;61.07
40992;BME280;29633;49.168;9.848;2023-04-09T07:49:59;97577.50;;;14.23;60.99
40992;BME280;29633;49.168;9.848;2023-04-09T07:52:25;97576.03;;;14.30;61.11
40992;BME280;29633;49.168;9.848;2023-04-09T07:54:51;97572.94;;;14.36;61.07
40992;BME280;29633;49.168;9.848;2023-04-09T07:57:17;97572.88;;;14.47;60.99
40992;BME280;29633;49.168;9.848;2023-04-09T07:59:42;97571.19;;;14.57;60.88
40992;BME280;29633;49.168;9.848;2023-04-09T08:02:08;97575.50;;;14.68;60.87
40992;BME280;29633;49.168;9.848;2023-04-09T08:04:33;97575.56;;;14.77;60.91
40992;BME280;29633;49.168;9.848;2023-04-09T08:06:59;97570.50;;;14.86;60.88
40992;BME280;29633;49.168;9.848;2023-04-09T08:09:25;97566.53;;;14.91;60.86
40992;BME280;29633;49.168;9.848;2023-04-09T08:11:50;97575.09;;;14.93;60.76
40992;BME280;29633;49.168;9.848;2023-04-09T08:14:17;97569.91;;;15.03;60.74
40992;BME280;29633;49.168;9.848;2023-04-09T08:16:45;97566.38;;;15.13;60.64
40992;BME280;29633;49.168;9.848;2023-04-09T08:19:11;97566.66;;;15.20;60.62
40992;BME280;29633;49.168;9.848;2023-04-09T08:21:38;97571.59;;;15.23;60.71
40992;BME280;29633;49.168;9.848;2023-04-09T08:24:08;97570.53;;;15.25;60.91
40992;BME280;29633;49.168;9.848;2023-04-09T08:26:36;97570.53;;;15.25;60.74
40992;BME280;29633;49.168;9.848;2023-04-09T08:29:02;97570.72;;;15.34;60.64
40992;BME280;29633;49.168;9.848;2023-04-09T08:31:27;97576.22;;;15.40;60.63
40992;BME280;29633;49.168;9.848;2023-04-09T08:33:53;97564.03;;;15.50;60.54
40992;BME280;29633;49.168;9.848;2023-04-09T08:36:19;97567.88;;;15.56;60.56
40992;BME280;29633;49.168;9.848;2023-04-09T08:38:45;97565.31;;;15.65;60.45
40992;BME280;29633;49.168;9.848;2023-04-09T08:41:30;97568.75;;;15.75;60.37
40992;BME280;29633;49.168;9.848;2023-04-09T08:43:56;97564.50;;;15.84;60.23
40992;BME280;29633;49.168;9.848;2023-04-09T08:46:22;97571.41;;;15.95;60.34
40992;BME280;29633;49.168;9.848;2023-04-09T08:48:49;97555.56;;;16.06;60.31
40992;BME280;29633;49.168;9.848;2023-04-09T08:51:17;97568.91;;;16.12;60.42
40992;BME280;29633;49.168;9.848;2023-04-09T08:53:57;97568.91;;;16.22;60.34
40992;BME280;29633;49.168;9.848;2023-04-09T08:56:23;97571.50;;;16.32;60.33
40992;BME280;29633;49.168;9.848;2023-04-09T08:58:49;97573.19;;;16.42;60.16
40992;BME280;29633;49.168;9.848;2023-04-09T09:01:22;97575.06;;;16.50;60.19
40992;BME280;29633;49.168;9.848;2023-04-09T09:03:55;97576.06;;;16.58;60.15
40992;BME280;29633;49.168;9.848;2023-04-09T09:06:23;97577.84;;;16.67;60.11
40992;BME280;29633;49.168;9.848;2023-04-09T09:08:59;97580.84;;;16.72;60.09
40992;BME280;29633;49.168;9.848;2023-04-09T09:11:25;97576.16;;;16.76;60.02
40992;BME280;29633;49.168;9.848;2023-04-09T09:14:03;97576.56;;;16.81;59.99
40992;BME280;29633;49.168;9.848;2023-04-09T09:16:29;97576.81;;;16.88;60.16
40992;BME280;29633;49.168;9.848;2023-04-09T09:18:57;97570.88;;;16.95;59.92
40992;BME280;29633;49.168;9.848;2023-04-09T09:21:24;97573.31;;;17.06;59.77
40992;BME280;29633;49.168;9.848;2023-04-09T09:23:51;97573.00;;;17.09;59.68
40992;BME280;29633;49.168;9.848;2023-04-09T09:26:20;97578.78;;;17.13;59.59
40992;BME280;29633;49.168;9.848;2023-04-09T09:28:47;97575.44;;;17.20;59.76
40992;BME280;29633;49.168;9.848;2023-04-09T09:31:13;97568.97;;;17.25;59.58
40992;BME280;29633;49.168;9.848;2023-04-09T09:33:40;97582.19;;;17.23;59.73
40992;BME280;29633;49.168;9.848;2023-04-09T09:36:06;97564.69;;;17.23;59.64
40992;BME280;29633;49.168;9.848;2023-04-09T09:38:49;97576.13;;;17.22;59.59
40992;BME280;29633;49.168;9.848;2023-04-09T09:41:16;97574.91;;;17.17;59.73
40992;BME280;29633;49.168;9.848;2023-04-09T09:43:42;97572.53;;;17.23;59.49
40992;BME280;29633;49.168;9.848;2023-04-09T09:46:09;97571.94;;;17.30;59.59
40992;BME280;29633;49.168;9.848;2023-04-09T09:48:35;97577.72;;;17.33;59.31
40992;BME280;29633;49.168;9.848;2023-04-09T09:51:01;97568.50;;;17.29;59.44
40992;BME280;29633;49.168;9.848;2023-04-09T09:53:28;97579.81;;;17.30;59.33
40992;BME280;29633;49.168;9.848;2023-04-09T09:55:54;97569.59;;;17.36;59.25
40992;BME280;29633;49.168;9.848;2023-04-09T09:58:23;97574.69;;;17.38;59.17
40992;BME280;29633;49.168;9.848;2023-04-09T10:00:51;97570.94;;;17.40;59.20
40992;BME280;29633;49.168;9.848;2023-04-09T10:03:23;97563.91;;;17.41;59.29
40992;BME280;29633;49.168;9.848;2023-04-09T10:05:49;97556.56;;;17.44;58.95
40992;BME280;29633;49.168;9.848;2023-04-09T10:08:15;97560.94;;;17.53;58.88
40992;BME280;29633;49.168;9.848;2023-04-09T10:10:41;97560.06;;;17.62;58.89
40992;BME280;29633;49.168;9.848;2023-04-09T10:13:12;97556.72;;;17.70;58.96
40992;BME280;29633;49.168;9.848;2023-04-09T10:15:39;97565.81;;;17.76;58.71
40992;BME280;29633;49.168;9.848;2023-04-09T10:18:09;97562.13;;;17.86;58.84
40992;BME280;29633;49.168;9.848;2023-04-09T10:20:40;97554.72;;;17.99;58.49
40992;BME280;29633;49.168;9.848;2023-04-09T10:23:10;97560.88;;;18.08;58.51
40992;BME280;29633;49.168;9.848;2023-04-09T10:25:40;97549.44;;;18.17;58.47
40992;BME280;29633;49.168;9.848;2023-04-09T10:28:14;97545.56;;;18.21;58.82
40992;BME280;29633;49.168;9.848;2023-04-09T10:30:40;97552.16;;;18.25;58.47
40992;BME280;29633;49.168;9.848;2023-04-09T10:35:34;97550.25;;;18.35;58.41
40992;BME280;29633;49.168;9.848;2023-04-09T10:38:00;97554.84;;;18.33;58.60
40992;BME280;29633;49.168;9.848;2023-04-09T10:40:27;97547.63;;;18.35;58.60
40992;BME280;29633;49.168;9.848;2023-04-09T10:42:56;97540.78;;;18.42;58.46
40992;BME280;29633;49.168;9.848;2023-04-09T10:45:22;97542.66;;;18.50;58.15
40992;BME280;29633;49.168;9.848;2023-04-09T10:47:52;97550.75;;;18.56;58.16
40992;BME280;29633;49.168;9.848;2023-04-09T10:50:25;97544.91;;;18.62;58.19
40992;BME280;29633;49.168;9.848;2023-04-09T10:52:55;97540.69;;;18.70;58.44
40992;BME280;29633;49.168;9.848;2023-04-09T10:55:36;97533.53;;;18.80;58.14
40992;BME280;29633;49.168;9.848;2023-04-09T10:58:06;97534.03;;;18.83;57.98
40992;BME280;29633;49.168;9.848;2023-04-09T11:00:35;97543.59;;;18.92;57.94
40992;BME280;29633;49.168;9.848;2023-04-09T11:05:33;97540.88;;;19.02;57.89
40992;BME280;29633;49.168;9.848;2023-04-09T11:08:12;97539.25;;;19.09;57.94
40992;BME280;29633;49.168;9.848;2023-04-09T11:10:42;97534.66;;;19.11;57.64
40992;BME280;29633;49.168;9.848;2023-04-09T11:13:16;97525.16;;;19.18;57.70
40992;BME280;29633;49.168;9.848;2023-04-09T11:15:43;97524.22;;;19.27;57.90
40992;BME280;29633;49.168;9.848;2023-04-09T11:18:13;97521.13;;;19.40;57.65
40992;BME280;29633;49.168;9.848;2023-04-09T11:20:39;97513.31;;;19.48;57.96
40992;BME280;29633;49.168;9.848;2023-04-09T11:23:07;97526.63;;;19.54;57.86
40992;BME280;29633;49.168;9.848;2023-04-09T11:25:33;97520.72;;;19.52;57.74
40992;BME280;29633;49.168;9.848;2023-04-09T11:28:02;97524.47;;;19.50;57.53
40992;BME280;29633;49.168;9.848;2023-04-09T11:30:28;97519.88;;;19.52;57.50
40992;BME280;29633;49.168;9.848;2023-04-09T11:32:55;97513.50;;;19.62;57.60
40992;BME280;29633;49.168;9.848;2023-04-09T11:35:21;97510.91;;;19.71;57.61
40992;BME280;29633;49.168;9.848;2023-04-09T11:37:48;97507.75;;;19.75;57.64
40992;BME280;29633;49.168;9.848;2023-04-09T11:40:15;97512.53;;;19.80;57.50
40992;BME280;29633;49.168;9.848;2023-04-09T11:42:44;97517.16;;;19.86;57.48
40992;BME280;29633;49.168;9.848;2023-04-09T11:45:10;97514.22;;;19.89;57.60
40992;BME280;29633;49.168;9.848;2023-04-09T11:47:38;97515.53;;;19.93;57.24
40992;BME280;29633;49.168;9.848;2023-04-09T11:50:06;97518.81;;;19.95;57.37
40992;BME280;29633;49.168;9.848;2023-04-09T11:52:32;97517.81;;;19.88;57.29
40992;BME280;29633;49.168;9.848;2023-04-09T11:55:04;97520.59;;;19.86;57.48
40992;BME280;29633;49.168;9.848;2023-04-09T11:57:40;97530.81;;;19.89;57.36
40992;BME280;29633;49.168;9.848;2023-04-09T12:00:13;97510.56;;;19.90;56.72
40992;BME280;29633;49.168;9.848;2023-04-09T12:02:47;97522.09;;;19.97;56.88
40992;BME280;29633;49.168;9.848;2023-04-09T12:05:27;97521.13;;;20.06;57.02
40992;BME280;29633;49.168;9.848;2023-04-09T12:07:57;97517.34;;;20.17;56.86
40992;BME280;29633;49.168;9.848;2023-04-09T12:10:28;97517.16;;;20.26;56.90
40992;BME280;29633;49.168;9.848;2023-04-09T12:13:03;97513.44;;;20.29;56.93
40992;BME280;29633;49.168;9.848;2023-04-09T12:15:34;97514.56;;;20.34;56.87
40992;BME280;29633;49.168;9.848;2023-04-09T12:18:00;97516.69;;;20.39;56.98
40992;BME280;29633;49.168;9.848;2023-04-09T12:20:34;97515.53;;;20.41;56.77
40992;BME280;29633;49.168;9.848;2023-04-09T12:23:03;97515.38;;;20.43;57.05
40992;BME280;29633;49.168;9.848;2023-04-09T12:25:33;97515.38;;;20.43;56.65
40992;BME280;29633;49.168;9.848;2023-04-09T12:28:00;97510.59;;;20.38;56.87
40992;BME280;29633;49.168;9.848;2023-04-09T12:30:26;97507.44;;;20.27;57.15
40992;BME280;29633;49.168;9.848;2023-04-09T12:32:52;97520.13;;;20.23;56.95
40992;BME280;29633;49.168;9.848;2023-04-09T12:35:18;97517.50;;;20.23;57.09
40992;BME280;29633;49.168;9.848;2023-04-09T12:37:44;97519.53;;;20.29;56.61
40992;BME280;29633;49.168;9.848;2023-04-09T12:40:10;97512.91;;;20.33;56.74
40992;BME280;29633;49.168;9.848;2023-04-09T12:42:42;97509.63;;;20.31;56.51
40992;BME280;29633;49.168;9.848;2023-04-09T12:45:09;97520.81;;;20.25;56.41
40992;BME280;29633;49.168;9.848;2023-04-09T12:47:35;97511.25;;;20.16;56.41
40992;BME280;29633;49.168;9.848;2023-04-09T12:50:02;97520.44;;;20.12;56.35
40992;BME280;29633;49.168;9.848;2023-04-09T12:52:29;97521.63;;;20.09;56.54
40992;BME280;29633;49.168;9.848;2023-04-09T12:54:55;97514.69;;;20.08;56.45
40992;BME280;29633;49.168;9.848;2023-04-09T12:57:20;97508.09;;;20.04;56.31
40992;BME280;29633;49.168;9.848;2023-04-09T12:59:46;97511.25;;;20.08;56.36
40992;BME280;29633;49.168;9.848;2023-04-09T13:02:12;97506.97;;;20.15;56.26
40992;BME280;29633;49.168;9.848;2023-04-09T13:04:37;97505.97;;;20.24;56.02
40992;BME280;29633;49.168;9.848;2023-04-09T13:07:03;97514.91;;;20.31;56.13
40992;BME280;29633;49.168;9.848;2023-04-09T13:09:29;97509.13;;;20.36;56.10